sensor_id;sensor_type;location;lat;lon;timestamp;temperature;humidity
15103;DHT22;7652;53.584;9.998;2023-04-01T00:02:43;11.20;99.90
15103;DHT22;7652;53.584;9.998;2023-04-01T00:05:46;11.20;99.90
15103;DHT22;7652;53.584;9.998;2023-04-01T00:08:50;11.20;99.90
15103;DHT22;7652;53.584;9.998;2023-04-01T00:11:54;11.10;99.90
15103;DHT22;7652;53.584;9.998;2023-04-01T00:14:57;11.10;99.90
15103;DHT22;7652;53.584;9.998;2023-04-01T00:18:02;11.20;99.90
15103;DHT22;7652;53.584;9.998;2023-04-01T00:21:05;11.10;99.90
15103;DHT22;7652;53.584;9.998;2023-04-01T00:24:08;11.10;99.90
15103;DHT22;7652;53.584;9.998;2023-04-01T00:27:11;11.20;99.90
15103;DHT22;7652;53.584;9.998;2023-04-01T00:30:14;11.20;99.90
15103;DHT22;7652;53.584;9.998;2023-04-01T00:33:18;11.20;99.90
15103;DHT22;7652;53.584;9.998;2023-04-01T00:36:22;11.20;99.90
15103;DHT22;7652;53.584;9.998;2023-04-01T00:39:25;11.10;99.90
15103;DHT22;7652;53.584;9.998;2023-04-01T00:42:28;11.00;99.90
15103;DHT22;7652;53.584;9.998;2023-04-01T00:45:34;11.00;99.90
15103;DHT22;7652;53.584;9.998;2023-04-01T00:48:42;10.90;99.90
15103;DHT22;7652;53.584;9.998;2023-04-01T00:51:48;10.90;99.90
15103;DHT22;7652;53.584;9.998;2023-04-01T00:54:55;10.80;99.90
15103;DHT22;7652;53.584;9.998;2023-04-01T00:58:00;10.90;99.90
15103;DHT22;7652;53.584;9.998;2023-04-01T01:01:05;10.80;99.90
15103;DHT22;7652;53.584;9.998;2023-04-01T01:04:22;10.80;99.90
15103;DHT22;7652;53.584;9.998;2023-04-01T01:07:32;10.80;99.90
15103;DHT22;7652;53.584;9.998;2023-04-01T01:10:40;10.70;99.90
15103;DHT22;7652;53.584;9.998;2023-04-01T01:13:51;10.80;99.90
15103;DHT22;7652;53.584;9.998;2023-04-01T01:17:01;10.90;99.90
15103;DHT22;7652;53.584;9.998;2023-04-01T01:20:27;10.80;99.90
15103;DHT22;7652;53.584;9.998;2023-04-01T01:27:10;10.80;99.90
15103;DHT22;7652;53.584;9.998;2023-04-01T01:30:26;10.80;99.90
15103;DHT22;7652;53.584;9.998;2023-04-01T01:33:44;10.70;99.90
15103;DHT22;7652;53.584;9.998;2023-04-01T01:36:55;10.80;99.90
15103;DHT22;7652;53.584;9.998;2023-04-01T01:40:03;10.80;99.90
15103;DHT22;7652;53.584;9.998;2023-04-01T01:43:11;10.70;99.90
15103;DHT22;7652;53.584;9.998;2023-04-01T01:46:18;10.70;99.90
15103;DHT22;7652;53.584;9.998;2023-04-01T01:49:22;10.80;99.90
15103;DHT22;7652;53.584;9.998;2023-04-01T01:52:28;10.80;99.90
15103;DHT22;7652;53.584;9.998;2023-04-01T01:55:33;10.90;99.90
15103;DHT22;7652;53.584;9.998;2023-04-01T01:58:39;10.90;99.90
15103;DHT22;7652;53.584;9.998;2023-04-01T02:01:46;10.90;99.90
15103;DHT22;7652;53.584;9.998;2023-04-01T02:04:52;10.90;99.90
15103;DHT22;7652;53.584;9.998;2023-04-01T02:08:01;10.90;99.90
15103;DHT22;7652;53.584;9.998;2023-04-01T02:11:08;11.00;99.90
15103;DHT22;7652;53.584;9.998;2023-04-01T02:14:14;11.00;99.90
15103;DHT22;7652;53.584;9.998;2023-04-01T02:17:19;11.00;99.90
15103;DHT22;7652;53.584;9.998;2023-04-01T02:20:24;10.90;99.90
15103;DHT22;7652;53.584;9.998;2023-04-01T02:23:29;10.80;99.90
15103;DHT22;7652;53.584;9.998;2023-04-01T02:26:32;10.80;99.90
15103;DHT22;7652;53.584;9.998;2023-04-01T02:29:35;10.80;99.90
15103;DHT22;7652;53.584;9.998;2023-04-01T02:32:39;10.80;99.90
15103;DHT22;7652;53.584;9.998;2023-04-01T02:35:42;10.80;99.90
15103;DHT22;7652;53.584;9.998;2023-04-01T02:38:48;10.90;99.90
15103;DHT22;7652;53.584;9.998;2023-04-01T02:41:52;10.90;99.90
15103;DHT22;7652;53.584;9.998;2023-04-01T02:44:55;10.90;99.90
15103;DHT22;7652;53.584;9.998;2023-04-01T02:47:58;10.90;99.90
15103;DHT22;7652;53.584;9.998;2023-04-01T02:51:01;10.80;99.90
15103;DHT22;7652;53.584;9.998;2023-04-01T02:54:06;10.80;99.90
15103;DHT22;7652;53.584;9.998;2023-04-01T02:57:09;10.80;99.90
15103;DHT22;7652;53.584;9.998;2023-04-01T03:00:14;10.70;99.90
15103;DHT22;7652;53.584;9.998;2023-04-01T03:03:17;10.70;99.90
15103;DHT22;7652;53.584;9.998;2023-04-01T03:06:20;10.70;99.90
15103;DHT22;7652;53.584;9.998;2023-04-01T03:09:24;10.70;99.90
15103;DHT22;7652;53.584;9.998;2023-04-01T03:12:27;10.80;99.90
15103;DHT22;7652;53.584;9.998;2023-04-01T03:15:31;10.70;99.90
15103;DHT22;7652;53.584;9.998;2023-04-01T03:18:35;10.70;99.90
15103;DHT22;7652;53.584;9.998;2023-04-01T03:21:38;10.70;99.90
15103;DHT22;7652;53.584;9.998;2023-04-01T03:24:42;10.70;99.90
15103;DHT22;7652;53.584;9.998;2023-04-01T03:27:45;10.70;99.90
15103;DHT22;7652;53.584;9.998;2023-04-01T03:30:48;10.70;99.90
15103;DHT22;7652;53.584;9.998;2023-04-01T03:33:51;10.70;99.90
15103;DHT22;7652;53.584;9.998;2023-04-01T03:36:54;10.70;99.90
15103;DHT22;7652;53.584;9.998;2023-04-01T03:39:58;10.70;99.90
15103;DHT22;7652;53.584;9.998;2023-04-01T03:43:01;10.70;99.90
15103;DHT22;7652;53.584;9.998;2023-04-01T03:46:05;10.70;99.90
15103;DHT22;7652;53.584;9.998;2023-04-01T03:49:09;10.70;99.90
15103;DHT22;7652;53.584;9.998;2023-04-01T03:52:13;10.70;99.90
15103;DHT22;7652;53.584;9.998;2023-04-01T03:55:17;10.70;99.90
15103;DHT22;7652;53.584;9.998;2023-04-01T03:58:20;10.80;99.90
15103;DHT22;7652;53.584;9.998;2023-04-01T04:01:23;10.80;99.90
15103;DHT22;7652;53.584;9.998;2023-04-01T04:04:27;10.70;99.90
15103;DHT22;7652;53.584;9.998;2023-04-01T04:07:30;10.70;99.90
15103;DHT22;7652;53.584;9.998;2023-04-01T04:10:34;10.70;99.90
15103;DHT22;7652;53.584;9.998;2023-04-01T04:13:37;10.60;99.90
15103;DHT22;7652;53.584;9.998;2023-04-01T04:16:40;10.60;99.90
15103;DHT22;7652;53.584;9.998;2023-04-01T04:19:43;10.60;99.90
15103;DHT22;7652;53.584;9.998;2023-04-01T04:22:47;10.60;99.90
15103;DHT22;7652;53.584;9.998;2023-04-01T04:25:56;10.60;99.90
15103;DHT22;7652;53.584;9.998;2023-04-01T04:28:59;10.70;99.90
15103;DHT22;7652;53.584;9.998;2023-04-01T04:32:02;10.70;99.90
15103;DHT22;7652;53.584;9.998;2023-04-01T04:35:06;10.70;99.90
15103;DHT22;7652;53.584;9.998;2023-04-01T04:38:09;10.70;99.90
15103;DHT22;7652;53.584;9.998;2023-04-01T04:41:14;10.50;99.90
15103;DHT22;7652;53.584;9.998;2023-04-01T04:44:19;10.50;99.90
15103;DHT22;7652;53.584;9.998;2023-04-01T04:47:22;10.50;99.90
15103;DHT22;7652;53.584;9.998;2023-04-01T04:50:25;10.60;99.90
15103;DHT22;7652;53.584;9.998;2023-04-01T04:53:28;10.70;99.90
15103;DHT22;7652;53.584;9.998;2023-04-01T04:56:33;10.60;99.90
15103;DHT22;7652;53.584;9.998;2023-04-01T04:59:37;10.60;99.90
15103;DHT22;7652;53.584;9.998;2023-04-01T05:02:40;10.60;99.90
15103;DHT22;7652;53.584;9.998;2023-04-01T05:05:49;10.60;99.90
15103;DHT22;7652;53.584;9.998;2023-04-01T05:08:52;10.70;99.90
15103;DHT22;7652;53.584;9.998;2023-04-01T05:11:56;10.70;99.90
15103;DHT22;7652;53.584;9.998;2023-04-01T05:14:59;10.70;99.90
15103;DHT22;7652;53.584;9.998;2023-04-01T05:18:03;10.60;99.90
15103;DHT22;7652;53.584;9.998;2023-04-01T05:21:07;10.60;99.90
15103;DHT22;7652;53.584;9.998;2023-04-01T05:24:10;10.70;99.90
15103;DHT22;7652;53.584;9.998;2023-04-01T05:27:15;10.60;99.90
15103;DHT22;7652;53.584;9.998;2023-04-01T05:30:19;10.50;99.90
15103;DHT22;7652;53.584;9.998;2023-04-01T05:33:22;10.40;99.90
15103;DHT22;7652;53.584;9.998;2023-04-01T05:36:25;10.30;99.90
15103;DHT22;7652;53.584;9.998;2023-04-01T05:39:28;10.00;99.90
15103;DHT22;7652;53.584;9.998;2023-04-01T05:42:33;9.80;99.90
15103;DHT22;7652;53.584;9.998;2023-04-01T05:45:39;9.60;99.90
15103;DHT22;7652;53.584;9.998;2023-04-01T05:48:42;9.50;99.90
15103;DHT22;7652;53.584;9.998;2023-04-01T05:51:45;9.50;99.90
15103;DHT22;7652;53.584;9.998;2023-04-01T05:54:47;9.40;99.90
15103;DHT22;7652;53.584;9.998;2023-04-01T05:57:52;9.20;99.90
15103;DHT22;7652;53.584;9.998;2023-04-01T06:01:00;9.10;99.90
15103;DHT22;7652;53.584;9.998;2023-04-01T06:04:14;9.10;99.90
15103;DHT22;7652;53.584;9.998;2023-04-01T06:07:18;9.10;99.90
15103;DHT22;7652;53.584;9.998;2023-04-01T06:10:21;9.00;99.90
15103;DHT22;7652;53.584;9.998;2023-04-01T06:13:38;8.90;99.90
15103;DHT22;7652;53.584;9.998;2023-04-01T06:16:58;8.80;99.90
15103;DHT22;7652;53.584;9.998;2023-04-01T06:20:08;8.80;99.90
15103;DHT22;7652;53.584;9.998;2023-04-01T06:23:30;8.70;99.90
15103;DHT22;7652;53.584;9.998;2023-04-01T06:26:39;8.70;99.90
15103;DHT22;7652;53.584;9.998;2023-04-01T06:29:52;8.70;99.90
15103;DHT22;7652;53.584;9.998;2023-04-01T06:33:16;8.60;99.90
15103;DHT22;7652;53.584;9.998;2023-04-01T06:36:39;8.60;99.90
15103;DHT22;7652;53.584;9.998;2023-04-01T06:40:12;8.60;99.90
15103;DHT22;7652;53.584;9.998;2023-04-01T06:43:27;8.50;99.90
15103;DHT22;7652;53.584;9.998;2023-04-01T06:46:41;8.50;99.90
15103;DHT22;7652;53.584;9.998;2023-04-01T06:49:53;8.60;99.90
15103;DHT22;7652;53.584;9.998;2023-04-01T06:53:04;8.60;99.90
15103;DHT22;7652;53.584;9.998;2023-04-01T06:56:11;8.60;99.90
15103;DHT22;7652;53.584;9.998;2023-04-01T06:59:17;8.60;99.90
15103;DHT22;7652;53.584;9.998;2023-04-01T07:02:28;8.60;99.90
15103;DHT22;7652;53.584;9.998;2023-04-01T07:05:33;8.60;99.90
15103;DHT22;7652;53.584;9.998;2023-04-01T07:08:40;8.50;99.90
15103;DHT22;7652;53.584;9.998;2023-04-01T07:11:45;8.40;99.90
15103;DHT22;7652;53.584;9.998;2023-04-01T07:14:49;8.50;99.90
15103;DHT22;7652;53.584;9.998;2023-04-01T07:17:56;8.40;99.90
15103;DHT22;7652;53.584;9.998;2023-04-01T07:21:01;8.40;99.90
15103;DHT22;7652;53.584;9.998;2023-04-01T07:24:06;8.40;99.90
15103;DHT22;7652;53.584;9.998;2023-04-01T07:27:13;8.40;99.90
15103;DHT22;7652;53.584;9.998;2023-04-01T07:30:18;8.30;99.90
15103;DHT22;7652;53.584;9.998;2023-04-01T07:33:30;8.20;99.90
15103;DHT22;7652;53.584;9.998;2023-04-01T07:36:40;8.20;99.90
15103;DHT22;7652;53.584;9.998;2023-04-01T07:39:51;8.20;99.90
15103;DHT22;7652;53.584;9.998;2023-04-01T07:43:22;8.20;99.90
15103;DHT22;7652;53.584;9.998;2023-04-01T07:46:46;8.20;99.90
15103;DHT22;7652;53.584;9.998;2023-04-01T07:50:01;8.20;99.90
15103;DHT22;7652;53.584;9.998;2023-04-01T07:53:13;8.20;99.90
15103;DHT22;7652;53.584;9.998;2023-04-01T07:56:22;8.20;99.90
15103;DHT22;7652;53.584;9.998;2023-04-01T07:59:34;8.20;99.90
15103;DHT22;7652;53.584;9.998;2023-04-01T08:02:52;8.20;99.90
15103;DHT22;7652;53.584;9.998;2023-04-01T08:06:07;8.20;99.90
15103;DHT22;7652;53.584;9.998;2023-04-01T08:09:19;8.10;99.90
15103;DHT22;7652;53.584;9.998;2023-04-01T08:12:35;8.10;99.90
15103;DHT22;7652;53.584;9.998;2023-04-01T08:15:49;8.00;99.90
15103;DHT22;7652;53.584;9.998;2023-04-01T08:19:03;8.00;99.90
15103;DHT22;7652;53.584;9.998;2023-04-01T08:22:16;8.00;99.90
15103;DHT22;7652;53.584;9.998;2023-04-01T08:25:25;8.10;99.90
15103;DHT22;7652;53.584;9.998;2023-04-01T08:28:32;8.20;99.90
15103;DHT22;7652;53.584;9.998;2023-04-01T08:31:41;8.20;99.90
15103;DHT22;7652;53.584;9.998;2023-04-01T08:34:50;8.20;99.90
15103;DHT22;7652;53.584;9.998;2023-04-01T08:37:59;8.30;99.90
15103;DHT22;7652;53.584;9.998;2023-04-01T08:41:19;8.40;99.90
15103;DHT22;7652;53.584;9.998;2023-04-01T08:44:37;8.50;99.90
15103;DHT22;7652;53.584;9.998;2023-04-01T08:47:48;8.60;99.90
15103;DHT22;7652;53.584;9.998;2023-04-01T08:51:14;8.50;99.90
15103;DHT22;7652;53.584;9.998;2023-04-01T08:58:15;8.40;99.90
15103;DHT22;7652;53.584;9.998;2023-04-01T09:08:37;8.60;99.90
15103;DHT22;7652;53.584;9.998;2023-04-01T09:12:02;8.60;99.90
15103;DHT22;7652;53.584;9.998;2023-04-01T09:15:57;8.50;99.90
15103;DHT22;7652;53.584;9.998;2023-04-01T09:19:21;8.50;99.90
15103;DHT22;7652;53.584;9.998;2023-04-01T09:22:39;8.70;99.90
15103;DHT22;7652;53.584;9.998;2023-04-01T09:25:53;8.70;99.90
15103;DHT22;7652;53.584;9.998;2023-04-01T09:29:12;8.80;99.90
15103;DHT22;7652;53.584;9.998;2023-04-01T09:32:52;8.80;99.90
15103;DHT22;7652;53.584;9.998;2023-04-01T09:36:04;8.90;99.90
15103;DHT22;7652;53.584;9.998;2023-04-01T09:39:25;9.00;99.90
15103;DHT22;7652;53.584;9.998;2023-04-01T09:42:43;9.00;99.90
15103;DHT22;7652;53.584;9.998;2023-04-01T09:46:01;8.90;99.90
15103;DHT22;7652;53.584;9.998;2023-04-01T09:49:37;8.90;99.90
15103;DHT22;7652;53.584;9.998;2023-04-01T09:52:46;9.00;99.90
15103;DHT22;7652;53.584;9.998;2023-04-01T09:56:17;9.10;99.90
15103;DHT22;7652;53.584;9.998;2023-04-01T10:07:19;9.30;99.90
15103;DHT22;7652;53.584;9.998;2023-04-01T10:10:58;9.30;99.90
15103;DHT22;7652;53.584;9.998;2023-04-01T10:22:27;9.30;99.90
15103;DHT22;7652;53.584;9.998;2023-04-01T10:33:26;9.40;99.90
15103;DHT22;7652;53.584;9.998;2023-04-01T10:36:53;9.50;99.90
15103;DHT22;7652;53.584;9.998;2023-04-01T10:40:16;9.70;99.90
15103;DHT22;7652;53.584;9.998;2023-04-01T10:44:04;9.60;99.90
15103;DHT22;7652;53.584;9.998;2023-04-01T10:51:17;9.40;99.90
15103;DHT22;7652;53.584;9.998;2023-04-01T10:54:43;9.40;99.90
15103;DHT22;7652;53.584;9.998;2023-04-01T10:58:22;9.40;99.90
15103;DHT22;7652;53.584;9.998;2023-04-01T11:02:06;9.50;99.90
15103;DHT22;7652;53.584;9.998;2023-04-01T11:09:26;9.50;99.90
15103;DHT22;7652;53.584;9.998;2023-04-01T11:12:51;9.50;99.90
15103;DHT22;7652;53.584;9.998;2023-04-01T11:16:20;9.50;99.90
15103;DHT22;7652;53.584;9.998;2023-04-01T11:23:21;9.20;99.90
15103;DHT22;7652;53.584;9.998;2023-04-01T11:26:36;9.20;99.90
15103;DHT22;7652;53.584;9.998;2023-04-01T11:29:48;9.00;99.90
15103;DHT22;7652;53.584;9.998;2023-04-01T11:33:06;9.10;99.90
15103;DHT22;7652;53.584;9.998;2023-04-01T11:36:21;9.10;99.90
15103;DHT22;7652;53.584;9.998;2023-04-01T11:39:33;9.00;99.90
15103;DHT22;7652;53.584;9.998;2023-04-01T11:42:43;9.10;99.90
15103;DHT22;7652;53.584;9.998;2023-04-01T11:45:51;9.00;99.90
15103;DHT22;7652;53.584;9.998;2023-04-01T11:49:05;9.10;99.90
15103;DHT22;7652;53.584;9.998;2023-04-01T11:52:31;8.90;99.90
15103;DHT22;7652;53.584;9.998;2023-04-01T11:55:47;8.80;99.90
15103;DHT22;7652;53.584;9.998;2023-04-01T12:02:34;8.60;99.90
15103;DHT22;7652;53.584;9.998;2023-04-01T12:05:47;8.70;99.90
15103;DHT22;7652;53.584;9.998;2023-04-01T12:09:00;8.60;99.90
15103;DHT22;7652;53.584;9.998;2023-04-01T12:12:15;8.60;99.90
15103;DHT22;7652;53.584;9.998;2023-04-01T12:15:26;8.70;99.90
15103;DHT22;7652;53.584;9.998;2023-04-01T12:18:36;8.60;99.90
15103;DHT22;7652;53.584;9.998;2023-04-01T12:21:45;8.50;99.90
15103;DHT22;7652;53.584;9.998;2023-04-01T12:24:56;8.50;99.90
15103;DHT22;7652;53.584;9.998;2023-04-01T12:28:08;8.50;99.90
15103;DHT22;7652;53.584;9.998;2023-04-01T12:31:25;8.40;99.90
15103;DHT22;7652;53.584;9.998;2023-04-01T12:34:41;8.30;99.90
15103;DHT22;7652;53.584;9.998;2023-04-01T12:37:57;8.30;99.90
15103;DHT22;7652;53.584;9.998;2023-04-01T12:41:09;8.30;99.90
15103;DHT22;7652;53.584;9.998;2023-04-01T12:44:27;8.30;99.90
15103;DHT22;7652;53.584;9.998;2023-04-01T12:47:49;8.40;99.90
15103;DHT22;7652;53.584;9.998;2023-04-01T12:54:50;8.40;99.90
15103;DHT22;7652;53.584;9.998;2023-04-01T12:58:12;8.50;99.90
15103;DHT22;7652;53.584;9.998;2023-04-01T13:01:29;8.50;99.90
15103;DHT22;7652;53.584;9.998;2023-04-01T13:04:49;8.30;99.90
15103;DHT22;7652;53.584;9.998;2023-04-01T13:08:07;8.30;99.90
15103;DHT22;7652;53.584;9.998;2023-04-01T13:11:18;8.10;99.90
15103;DHT22;7652;53.584;9.998;2023-04-01T13:14:40;8.20;99.90
15103;DHT22;7652;53.584;9.998;2023-04-01T13:17:53;8.10;99.90
15103;DHT22;7652;53.584;9.998;2023-04-01T13:21:04;8.10;99.90
15103;DHT22;7652;53.584;9.998;2023-04-01T13:24:30;8.00;99.90
15103;DHT22;7652;53.584;9.998;2023-04-01T13:27:38;8.00;99.90
15103;DHT22;7652;53.584;9.998;2023-04-01T13:30:49;8.10;99.90
15103;DHT22;7652;53.584;9.998;2023-04-01T13:34:05;8.00;99.90
15103;DHT22;7652;53.584;9.998;2023-04-01T13:37:22;8.10;99.90
15103;DHT22;7652;53.584;9.998;2023-04-01T13:40:33;8.10;99.90
15103;DHT22;7652;53.584;9.998;2023-04-01T13:43:50;8.00;99.90
15103;DHT22;7652;53.584;9.998;2023-04-01T13:47:12;8.00;99.90
15103;DHT22;7652;53.584;9.998;2023-04-01T13:50:37;8.10;99.90
15103;DHT22;7652;53.584;9.998;2023-04-01T13:54:00;8.10;99.90
15103;DHT22;7652;53.584;9.998;2023-04-01T13:57:20;8.10;99.90
15103;DHT22;7652;53.584;9.998;2023-04-01T14:00:38;8.20;99.90
15103;DHT22;7652;53.584;9.998;2023-04-01T14:03:59;8.20;99.90
15103;DHT22;7652;53.584;9.998;2023-04-01T14:07:18;8.20;99.90
15103;DHT22;7652;53.584;9.998;2023-04-01T14:10:31;8.10;99.90
15103;DHT22;7652;53.584;9.998;2023-04-01T14:13:43;8.10;99.90
15103;DHT22;7652;53.584;9.998;2023-04-01T14:17:07;8.10;99.90
15103;DHT22;7652;53.584;9.998;2023-04-01T14:20:27;8.00;99.90
15103;DHT22;7652;53.584;9.998;2023-04-01T14:23:46;8.00;99.90
15103;DHT22;7652;53.584;9.998;2023-04-01T14:27:09;8.00;99.90
15103;DHT22;7652;53.584;9.998;2023-04-01T14:30:30;8.00;99.90
15103;DHT22;7652;53.584;9.998;2023-04-01T14:33:45;8.00;99.90
15103;DHT22;7652;53.584;9.998;2023-04-01T14:37:15;7.90;99.90
15103;DHT22;7652;53.584;9.998;2023-04-01T14:40:27;8.00;99.90
15103;DHT22;7652;53.584;9.998;2023-04-01T14:43:54;8.00;99.90
15103;DHT22;7652;53.584;9.998;2023-04-01T14:47:18;7.90;99.90
15103;DHT22;7652;53.584;9.998;2023-04-01T14:50:29;8.00;99.90
15103;DHT22;7652;53.584;9.998;2023-04-01T14:53:36;8.00;99.90
15103;DHT22;7652;53.584;9.998;2023-04-01T14:56:42;8.00;99.90
15103;DHT22;7652;53.584;9.998;2023-04-01T14:59:48;8.00;99.90
15103;DHT22;7652;53.584;9.998;2023-04-01T15:02:57;7.90;99.90
15103;DHT22;7652;53.584;9.998;2023-04-01T15:06:40;7.90;99.90
15103;DHT22;7652;53.584;9.998;2023-04-01T15:09:52;7.90;99.90
15103;DHT22;7652;53.584;9.998;2023-04-01T15:13:05;7.90;99.90
15103;DHT22;7652;53.584;9.998;2023-04-01T15:16:19;7.70;99.90
15103;DHT22;7652;53.584;9.998;2023-04-01T15:19:33;7.60;99.90
15103;DHT22;7652;53.584;9.998;2023-04-01T15:22:51;7.70;99.90
15103;DHT22;7652;53.584;9.998;2023-04-01T15:26:27;7.70;99.90
15103;DHT22;7652;53.584;9.998;2023-04-01T15:29:51;7.60;99.90
15103;DHT22;7652;53.584;9.998;2023-04-01T15:36:37;7.50;99.90
15103;DHT22;7652;53.584;9.998;2023-04-01T15:39:53;7.50;99.90
15103;DHT22;7652;53.584;9.998;2023-04-01T15:43:11;7.40;99.90
15103;DHT22;7652;53.584;9.998;2023-04-01T15:46:30;7.40;99.90
15103;DHT22;7652;53.584;9.998;2023-04-01T15:49:42;7.30;99.90
15103;DHT22;7652;53.584;9.998;2023-04-01T15:52:50;7.30;99.90
15103;DHT22;7652;53.584;9.998;2023-04-01T15:56:06;7.20;99.90
15103;DHT22;7652;53.584;9.998;2023-04-01T15:59:24;7.20;99.90
15103;DHT22;7652;53.584;9.998;2023-04-01T16:02:34;7.20;99.90
15103;DHT22;7652;53.584;9.998;2023-04-01T16:05:49;7.20;99.90
15103;DHT22;7652;53.584;9.998;2023-04-01T16:09:29;7.30;99.90
15103;DHT22;7652;53.584;9.998;2023-04-01T16:12:49;7.20;99.90
15103;DHT22;7652;53.584;9.998;2023-04-01T16:16:02;7.20;99.90
15103;DHT22;7652;53.584;9.998;2023-04-01T16:19:28;7.20;99.90
15103;DHT22;7652;53.584;9.998;2023-04-01T16:22:37;7.20;99.90
15103;DHT22;7652;53.584;9.998;2023-04-01T16:25:44;7.10;99.90
15103;DHT22;7652;53.584;9.998;2023-04-01T16:28:54;7.10;99.90
15103;DHT22;7652;53.584;9.998;2023-04-01T16:32:12;7.00;99.90
15103;DHT22;7652;53.584;9.998;2023-04-01T16:35:25;7.00;99.90
15103;DHT22;7652;53.584;9.998;2023-04-01T16:38:37;7.00;99.90
15103;DHT22;7652;53.584;9.998;2023-04-01T16:41:48;6.90;99.90
15103;DHT22;7652;53.584;9.998;2023-04-01T16:44:56;6.90;99.90
15103;DHT22;7652;53.584;9.998;2023-04-01T16:48:07;6.90;99.90
15103;DHT22;7652;53.584;9.998;2023-04-01T16:51:15;6.90;99.90
15103;DHT22;7652;53.584;9.998;2023-04-01T16:54:28;6.80;99.90
15103;DHT22;7652;53.584;9.998;2023-04-01T16:57:37;6.80;99.90
15103;DHT22;7652;53.584;9.998;2023-04-01T17:00:50;6.80;99.90
15103;DHT22;7652;53.584;9.998;2023-04-01T17:04:04;6.70;99.90
15103;DHT22;7652;53.584;9.998;2023-04-01T17:07:19;6.70;99.90
15103;DHT22;7652;53.584;9.998;2023-04-01T17:10:43;6.70;99.90
15103;DHT22;7652;53.584;9.998;2023-04-01T17:13:53;6.70;99.90
15103;DHT22;7652;53.584;9.998;2023-04-01T17:17:31;6.70;99.90
15103;DHT22;7652;53.584;9.998;2023-04-01T17:20:43;6.70;99.90
15103;DHT22;7652;53.584;9.998;2023-04-01T17:23:51;6.50;99.90
15103;DHT22;7652;53.584;9.998;2023-04-01T17:27:02;6.50;99.90
15103;DHT22;7652;53.584;9.998;2023-04-01T17:30:17;6.40;99.90
15103;DHT22;7652;53.584;9.998;2023-04-01T17:33:42;6.50;99.90
15103;DHT22;7652;53.584;9.998;2023-04-01T17:37:01;6.50;99.90
15103;DHT22;7652;53.584;9.998;2023-04-01T17:40:24;6.60;99.90
15103;DHT22;7652;53.584;9.998;2023-04-01T17:43:38;6.60;99.90
15103;DHT22;7652;53.584;9.998;2023-04-01T17:47:00;6.60;99.90
15103;DHT22;7652;53.584;9.998;2023-04-01T17:50:20;6.70;99.90
15103;DHT22;7652;53.584;9.998;2023-04-01T17:53:33;6.60;99.90
15103;DHT22;7652;53.584;9.998;2023-04-01T17:56:47;6.60;99.90
15103;DHT22;7652;53.584;9.998;2023-04-01T18:00:01;6.60;99.90
15103;DHT22;7652;53.584;9.998;2023-04-01T18:03:13;6.60;99.90
15103;DHT22;7652;53.584;9.998;2023-04-01T18:06:29;6.60;99.90
15103;DHT22;7652;53.584;9.998;2023-04-01T18:09:45;6.60;99.90
15103;DHT22;7652;53.584;9.998;2023-04-01T18:13:14;6.50;99.90
15103;DHT22;7652;53.584;9.998;2023-04-01T18:16:39;6.50;99.90
15103;DHT22;7652;53.584;9.998;2023-04-01T18:20:01;6.50;99.90
15103;DHT22;7652;53.584;9.998;2023-04-01T18:23:14;6.50;99.90
15103;DHT22;7652;53.584;9.998;2023-04-01T18:26:24;6.40;99.90
15103;DHT22;7652;53.584;9.998;2023-04-01T18:29:36;6.30;99.90
15103;DHT22;7652;53.584;9.998;2023-04-01T18:32:47;6.20;99.90
15103;DHT22;7652;53.584;9.998;2023-04-01T18:35:54;6.30;99.90
15103;DHT22;7652;53.584;9.998;2023-04-01T18:39:04;6.20;99.90
15103;DHT22;7652;53.584;9.998;2023-04-01T18:42:19;6.20;99.90
15103;DHT22;7652;53.584;9.998;2023-04-01T18:45:28;6.20;99.90
15103;DHT22;7652;53.584;9.998;2023-04-01T18:48:49;6.00;99.90
15103;DHT22;7652;53.584;9.998;2023-04-01T18:51:56;6.00;99.90
15103;DHT22;7652;53.584;9.998;2023-04-01T18:55:29;6.00;99.90
15103;DHT22;7652;53.584;9.998;2023-04-01T18:58:34;5.90;99.90
15103;DHT22;7652;53.584;9.998;2023-04-01T19:01:42;5.90;99.90
15103;DHT22;7652;53.584;9.998;2023-04-01T19:04:50;5.90;99.90
15103;DHT22;7652;53.584;9.998;2023-04-01T19:07:56;5.80;99.90
15103;DHT22;7652;53.584;9.998;2023-04-01T19:11:07;5.90;99.90
15103;DHT22;7652;53.584;9.998;2023-04-01T19:14:18;5.80;99.90
15103;DHT22;7652;53.584;9.998;2023-04-01T19:17:32;5.80;99.90
15103;DHT22;7652;53.584;9.998;2023-04-01T19:20:42;5.80;99.90
15103;DHT22;7652;53.584;9.998;2023-04-01T19:24:16;5.90;99.90
15103;DHT22;7652;53.584;9.998;2023-04-01T19:27:31;5.90;99.90
15103;DHT22;7652;53.584;9.998;2023-04-01T19:30:49;5.90;99.90
15103;DHT22;7652;53.584;9.998;2023-04-01T19:34:06;5.90;99.90
15103;DHT22;7652;53.584;9.998;2023-04-01T19:37:25;5.90;99.90
15103;DHT22;7652;53.584;9.998;2023-04-01T19:40:49;5.90;99.90
15103;DHT22;7652;53.584;9.998;2023-04-01T19:43:59;5.80;99.90
15103;DHT22;7652;53.584;9.998;2023-04-01T19:47:09;5.80;99.90
15103;DHT22;7652;53.584;9.998;2023-04-01T19:50:26;5.70;99.90
15103;DHT22;7652;53.584;9.998;2023-04-01T19:53:36;5.80;99.90
15103;DHT22;7652;53.584;9.998;2023-04-01T19:56:45;5.80;99.90
15103;DHT22;7652;53.584;9.998;2023-04-01T19:59:56;5.50;99.90
15103;DHT22;7652;53.584;9.998;2023-04-01T20:03:07;5.40;99.90
15103;DHT22;7652;53.584;9.998;2023-04-01T20:06:24;5.40;99.90
15103;DHT22;7652;53.584;9.998;2023-04-01T20:09:45;5.30;99.90
15103;DHT22;7652;53.584;9.998;2023-04-01T20:12:57;5.20;99.90
15103;DHT22;7652;53.584;9.998;2023-04-01T20:16:06;5.10;99.90
15103;DHT22;7652;53.584;9.998;2023-04-01T20:19:10;5.00;99.90
15103;DHT22;7652;53.584;9.998;2023-04-01T20:22:25;5.00;99.90
15103;DHT22;7652;53.584;9.998;2023-04-01T20:25:37;4.90;99.90
15103;DHT22;7652;53.584;9.998;2023-04-01T20:28:43;4.80;99.90
15103;DHT22;7652;53.584;9.998;2023-04-01T20:31:55;4.80;99.90
15103;DHT22;7652;53.584;9.998;2023-04-01T20:35:17;4.80;99.90
15103;DHT22;7652;53.584;9.998;2023-04-01T20:38:41;4.70;99.90
15103;DHT22;7652;53.584;9.998;2023-04-01T20:42:10;4.70;99.90
15103;DHT22;7652;53.584;9.998;2023-04-01T20:45:32;4.80;99.90
15103;DHT22;7652;53.584;9.998;2023-04-01T20:48:53;4.80;99.90
15103;DHT22;7652;53.584;9.998;2023-04-01T20:52:07;4.70;99.90
15103;DHT22;7652;53.584;9.998;2023-04-01T20:55:28;4.60;99.90
15103;DHT22;7652;53.584;9.998;2023-04-01T20:58:40;4.60;99.90
15103;DHT22;7652;53.584;9.998;2023-04-01T21:01:54;4.50;99.90
15103;DHT22;7652;53.584;9.998;2023-04-01T21:09:06;4.40;99.90
15103;DHT22;7652;53.584;9.998;2023-04-01T21:12:21;4.30;99.90
15103;DHT22;7652;53.584;9.998;2023-04-01T21:15:45;4.30;99.90
15103;DHT22;7652;53.584;9.998;2023-04-01T21:19:03;4.20;99.90
15103;DHT22;7652;53.584;9.998;2023-04-01T21:22:33;4.20;99.90
15103;DHT22;7652;53.584;9.998;2023-04-01T21:26:06;4.10;99.90
15103;DHT22;7652;53.584;9.998;2023-04-01T21:32:46;4.00;99.90
15103;DHT22;7652;53.584;9.998;2023-04-01T21:36:01;4.00;99.90
15103;DHT22;7652;53.584;9.998;2023-04-01T21:39:20;4.00;99.90
15103;DHT22;7652;53.584;9.998;2023-04-01T21:42:32;3.90;99.90
15103;DHT22;7652;53.584;9.998;2023-04-01T21:45:56;3.80;99.90
15103;DHT22;7652;53.584;9.998;2023-04-01T21:49:25;3.80;99.90
15103;DHT22;7652;53.584;9.998;2023-04-01T21:52:51;3.80;99.90
15103;DHT22;7652;53.584;9.998;2023-04-01T21:56:39;3.70;99.90
15103;DHT22;7652;53.584;9.998;2023-04-01T22:00:09;3.60;99.90
15103;DHT22;7652;53.584;9.998;2023-04-01T22:03:53;3.70;99.90